Time;durP1;ratioP1;P1;durP2;ratioP2;P2;SDS_P1;SDS_P2;PMS_P1;PMS_P2;Temp;Humidity;BMP_temperature;BMP_pressure;BME280_temperature;BME280_humidity;BME280_pressure;Samples;Min_cycle;Max_cycle;Signal;HPM_P1;HPM_P2
2023/11/02 00:01:16;;;;;;;4.78;1.33;;;11.80;88.00;;;;;;9165080;19;20010;-73
2023/11/02 00:04:27;;;;;;;6.40;1.73;;;11.80;89.10;;;;;;9161751;19;20030;-74
2023/11/02 00:07:34;;;;;;;7.45;1.52;;;11.80;89.40;;;;;;9162801;19;20018;-73
2023/11/02 00:10:40;;;;;;;7.00;1.25;;;11.60;86.40;;;;;;9163920;19;20018;-73
2023/11/02 00:13:50;;;;;;;7.60;1.88;;;11.60;86.30;;;;;;9161043;19;20826;-73
2023/11/02 00:16:59;;;;;;;5.10;1.27;;;11.60;86.30;;;;;;9163261;19;20109;-73
2023/11/02 00:20:08;;;;;;;9.32;1.50;;;11.60;86.40;;;;;;9163763;19;20015;-72
2023/11/02 00:23:15;;;;;;;3.65;1.42;;;11.70;86.50;;;;;;9164479;19;20970;-71
2023/11/02 00:26:23;;;;;;;5.90;1.55;;;11.60;86.40;;;;;;9164704;19;20022;-72
2023/11/02 00:29:33;;;;;;;11.98;1.90;;;11.60;86.60;;;;;;9158873;19;20547;-72
2023/11/02 00:32:41;;;;;;;5.70;1.98;;;11.50;86.60;;;;;;9162087;19;20022;-71
2023/11/02 00:35:47;;;;;;;8.55;2.15;;;11.60;86.60;;;;;;9162015;19;20022;-73
2023/11/02 00:38:59;;;;;;;9.07;2.13;;;11.60;86.50;;;;;;9162396;19;20098;-72
2023/11/02 00:42:04;;;;;;;6.07;1.42;;;11.60;86.50;;;;;;9163599;19;20064;-74
2023/11/02 00:45:15;;;;;;;5.32;1.60;;;11.40;86.60;;;;;;9163618;19;20692;-73
2023/11/02 00:48:22;;;;;;;7.53;1.50;;;11.50;86.80;;;;;;9161778;19;20112;-72
2023/11/02 00:51:31;;;;;;;11.32;1.15;;;11.50;87.20;;;;;;9160880;19;20019;-72
2023/11/02 00:54:56;;;;;;;4.07;1.65;;;11.60;86.80;;;;;;9160249;19;20362;-72
2023/11/02 00:58:11;;;;;;;8.77;1.50;;;11.50;86.40;;;;;;9162942;19;20018;-73
2023/11/02 01:01:24;;;;;;;3.40;1.23;;;11.50;86.50;;;;;;9161498;19;20022;-73
2023/11/02 01:04:55;;;;;;;2.58;1.00;;;11.50;87.10;;;;;;9160044;19;20017;-73
2023/11/02 01:08:01;;;;;;;4.88;1.05;;;11.40;86.40;;;;;;9162828;19;20041;-73
2023/11/02 01:11:11;;;;;;;3.75;1.13;;;11.40;86.50;;;;;;9161120;19;20385;-72
2023/11/02 01:14:46;;;;;;;3.22;1.05;;;11.40;87.00;;;;;;9162387;19;20033;-74
2023/11/02 01:17:56;;;;;;;3.53;0.90;;;11.40;86.60;;;;;;9162617;19;20053;-73
2023/11/02 01:21:04;;;;;;;2.40;0.90;;;11.40;86.70;;;;;;9161559;19;20021;-73
2023/11/02 01:24:12;;;;;;;8.10;1.05;;;11.40;86.70;;;;;;9161628;19;20026;-73
2023/11/02 01:27:26;;;;;;;3.25;1.17;;;11.40;87.30;;;;;;9159706;19;20010;-74
2023/11/02 01:30:59;;;;;;;1.67;0.70;;;11.40;87.30;;;;;;9155259;19;20672;-73
2023/11/02 01:34:08;;;;;;;3.30;1.10;;;11.40;88.00;;;;;;9160806;19;20760;-72
2023/11/02 01:37:15;;;;;;;2.20;1.13;;;11.40;88.10;;;;;;9159723;19;20090;-72
2023/11/02 01:40:37;;;;;;;5.60;1.10;;;11.40;87.70;;;;;;9161242;19;20070;-73
2023/11/02 01:43:53;;;;;;;4.93;1.23;;;11.40;87.90;;;;;;9160536;19;20467;-75
2023/11/02 01:47:03;;;;;;;1.67;0.67;;;11.40;87.90;;;;;;9163365;19;20019;-74
2023/11/02 01:50:21;;;;;;;2.75;0.75;;;11.30;86.50;;;;;;9161684;19;20365;-72
2023/11/02 01:53:34;;;;;;;2.42;1.08;;;11.40;86.60;;;;;;9161050;19;20618;-73
2023/11/02 01:56:49;;;;;;;10.52;1.02;;;11.40;86.70;;;;;;9159243;19;20022;-73
2023/11/02 02:00:05;;;;;;;2.45;0.80;;;11.40;86.60;;;;;;9159891;19;20018;-73
2023/11/02 02:03:26;;;;;;;4.05;1.00;;;11.40;86.60;;;;;;9161238;19;20026;-73
2023/11/02 02:06:41;;;;;;;1.52;0.70;;;11.40;86.70;;;;;;9157715;19;20018;-74
2023/11/02 02:10:11;;;;;;;3.17;1.17;;;11.40;86.60;;;;;;9160175;19;20022;-73
2023/11/02 02:13:26;;;;;;;3.63;0.88;;;11.40;86.50;;;;;;9160225;19;20025;-73
2023/11/02 02:16:40;;;;;;;7.78;1.05;;;11.40;86.60;;;;;;9161925;19;20319;-73
2023/11/02 02:19:59;;;;;;;2.58;0.80;;;11.40;86.90;;;;;;9167595;19;20081;-73
2023/11/02 02:23:18;;;;;;;5.30;1.00;;;11.40;86.60;;;;;;9167309;19;20793;-71
2023/11/02 02:26:40;;;;;;;4.70;0.85;;;11.40;86.70;;;;;;9167977;19;20010;-74
2023/11/02 02:30:21;;;;;;;1.70;0.90;;;11.40;86.70;;;;;;9165007;19;20022;-73
2023/11/02 02:34:04;;;;;;;2.28;0.70;;;11.40;86.60;;;;;;9167545;19;20040;-72
2023/11/02 02:37:17;;;;;;;1.08;0.50;;;11.40;86.60;;;;;;9162837;19;20952;-75
2023/11/02 02:40:36;;;;;;;2.55;0.95;;;11.50;86.90;;;;;;9171066;19;20022;-72
2023/11/02 02:43:44;;;;;;;2.33;0.73;;;11.40;86.70;;;;;;9171172;19;20006;-73
2023/11/02 02:46:50;;;;;;;4.18;0.93;;;11.40;86.60;;;;;;9169895;19;20010;-72
2023/11/02 02:50:00;;;;;;;2.00;0.90;;;11.40;87.20;;;;;;9169267;19;20018;-74
2023/11/02 02:53:11;;;;;;;4.68;0.77;;;11.40;87.00;;;;;;9167572;19;20518;-73
2023/11/02 02:56:24;;;;;;;4.35;1.10;;;11.40;87.50;;;;;;9167284;19;20033;-72
2023/11/02 02:59:34;;;;;;;4.35;1.00;;;11.40;87.80;;;;;;9166812;19;20022;-73
2023/11/02 03:02:47;;;;;;;2.78;1.20;;;11.40;90.70;;;;;;9167430;19;20034;-73
2023/11/02 03:05:55;;;;;;;4.13;1.02;;;11.90;89.00;;;;;;9166271;19;20018;-73
2023/11/02 03:09:05;;;;;;;3.53;1.23;;;11.50;88.50;;;;;;9167858;19;20051;-75
2023/11/02 03:12:15;;;;;;;2.28;0.80;;;11.40;88.30;;;;;;9165028;19;20588;-73
2023/11/02 03:15:28;;;;;;;6.32;0.77;;;11.40;88.30;;;;;;9165351;19;20033;-72
2023/11/02 03:18:39;;;;;;;4.55;1.67;;;11.50;88.90;;;;;;9167582;19;20053;-73
2023/11/02 03:21:46;;;;;;;2.92;0.88;;;12.00;90.50;;;;;;9165803;19;20015;-73
2023/11/02 03:25:07;;;;;;;7.38;0.90;;;11.50;92.60;;;;;;9164790;19;20087;-72
2023/11/02 03:28:25;;;;;;;5.78;0.80;;;11.50;92.80;;;;;;9164397;19;20022;-72
2023/11/02 03:31:43;;;;;;;2.85;0.68;;;11.50;93.00;;;;;;9162520;19;20018;-73
2023/11/02 03:34:58;;;;;;;2.25;0.75;;;11.50;93.10;;;;;;9167297;19;20014;-75
2023/11/02 03:38:17;;;;;;;2.50;0.88;;;11.50;93.80;;;;;;9166277;19;20140;-73
2023/11/02 03:41:40;;;;;;;2.85;0.80;;;11.60;93.60;;;;;;9166583;19;20025;-73
2023/11/02 03:44:56;;;;;;;2.78;0.77;;;11.50;94.30;;;;;;9164765;19;20011;-73
2023/11/02 03:48:13;;;;;;;1.98;0.77;;;11.40;93.50;;;;;;9163569;19;20018;-73
2023/11/02 03:51:33;;;;;;;1.85;0.65;;;11.40;92.30;;;;;;9164970;19;20027;-74
2023/11/02 03:54:58;;;;;;;9.35;1.08;;;11.40;92.20;;;;;;9164748;19;20025;-72
2023/11/02 03:58:16;;;;;;;4.07;1.52;;;11.50;92.10;;;;;;9162880;19;20018;-74
2023/11/02 04:01:31;;;;;;;2.00;0.77;;;11.40;92.30;;;;;;9164432;19;20030;-75
2023/11/02 04:04:48;;;;;;;4.88;1.08;;;11.50;92.30;;;;;;9162363;19;20073;-73
2023/11/02 04:08:10;;;;;;;2.38;1.35;;;11.40;92.60;;;;;;9164301;19;20018;-75
2023/11/02 04:11:28;;;;;;;1.67;0.63;;;11.50;93.20;;;;;;9163916;19;20019;-75
2023/11/02 04:14:40;;;;;;;2.10;0.85;;;11.50;94.00;;;;;;9164395;19;20010;-74
2023/11/02 04:17:45;;;;;;;3.10;1.20;;;11.60;94.40;;;;;;9162750;19;20052;-72
2023/11/02 04:20:54;;;;;;;1.60;0.60;;;11.50;94.70;;;;;;9164960;19;20038;-73
2023/11/02 04:24:00;;;;;;;4.72;0.82;;;11.60;92.50;;;;;;9162285;19;20019;-73
2023/11/02 04:27:09;;;;;;;2.80;0.77;;;11.60;92.90;;;;;;9163566;19;20014;-75
2023/11/02 04:30:17;;;;;;;5.60;1.00;;;11.50;92.40;;;;;;9160352;19;20018;-74
2023/11/02 04:33:25;;;;;;;0.73;0.70;;;11.60;92.30;;;;;;9164487;19;20082;-73
2023/11/02 04:36:31;;;;;;;5.80;1.33;;;11.60;92.40;;;;;;9161151;19;20022;-74
2023/11/02 04:39:39;;;;;;;4.38;0.93;;;11.50;92.30;;;;;;9161207;19;20014;-73
2023/11/02 04:42:48;;;;;;;2.45;0.98;;;11.60;92.40;;;;;;9162450;19;20020;-73
2023/11/02 04:45:58;;;;;;;6.40;1.38;;;11.60;92.60;;;;;;9162041;19;20020;-73
2023/11/02 04:49:03;;;;;;;6.95;1.17;;;11.60;92.40;;;;;;9161650;19;20010;-74
2023/11/02 04:52:11;;;;;;;4.72;1.33;;;11.60;92.70;;;;;;9162022;19;20027;-73
2023/11/02 04:55:16;;;;;;;9.27;1.13;;;11.60;92.70;;;;;;9163708;19;20044;-73
2023/11/02 04:58:24;;;;;;;4.78;1.40;;;11.70;92.80;;;;;;9161614;19;20099;-74
2023/11/02 05:01:34;;;;;;;4.05;1.13;;;11.70;93.10;;;;;;9162385;19;20006;-74
2023/11/02 05:04:42;;;;;;;5.15;1.05;;;11.80;93.40;;;;;;9162657;19;20019;-73
2023/11/02 05:07:47;;;;;;;2.83;0.80;;;11.80;93.90;;;;;;9159330;19;20015;-74
2023/11/02 05:10:54;;;;;;;9.82;1.42;;;11.70;93.50;;;;;;9163065;19;20495;-73
2023/11/02 05:14:00;;;;;;;3.13;1.00;;;11.70;93.60;;;;;;9162352;19;20391;-73
2023/11/02 05:17:10;;;;;;;5.57;1.40;;;11.80;93.40;;;;;;9161926;19;20021;-72
2023/11/02 05:20:16;;;;;;;3.80;1.38;;;12.00;93.30;;;;;;9159712;19;20475;-74
2023/11/02 05:23:23;;;;;;;1.92;1.17;;;11.80;93.70;;;;;;9160435;19;20393;-74
2023/11/02 05:26:29;;;;;;;6.55;0.82;;;11.90;94.00;;;;;;9162678;19;20022;-74
2023/11/02 05:29:36;;;;;;;2.85;1.00;;;11.80;93.30;;;;;;9158819;19;20053;-74
2023/11/02 05:32:44;;;;;;;4.97;1.33;;;11.50;94.80;;;;;;9160048;19;20011;-74
2023/11/02 05:35:52;;;;;;;3.53;0.88;;;11.80;92.40;;;;;;9161629;19;20033;-74
2023/11/02 05:39:05;;;;;;;1.85;0.70;;;11.80;92.50;;;;;;9159096;19;20029;-72
2023/11/02 05:42:13;;;;;;;7.18;1.02;;;11.90;92.60;;;;;;9160685;19;20007;-73
2023/11/02 05:45:21;;;;;;;4.72;0.88;;;11.80;92.40;;;;;;9160530;19;20056;-73
2023/11/02 05:48:32;;;;;;;3.85;0.95;;;11.90;92.50;;;;;;9161133;19;20716;-74
2023/11/02 05:51:37;;;;;;;4.25;0.73;;;11.80;92.70;;;;;;9171281;19;20014;-74
2023/11/02 05:54:44;;;;;;;2.60;0.88;;;11.80;92.70;;;;;;9171996;19;20014;-73
2023/11/02 05:57:50;;;;;;;3.92;1.20;;;11.80;93.30;;;;;;9170240;19;20359;-74
2023/11/02 06:01:01;;;;;;;6.00;1.10;;;11.90;93.20;;;;;;9171192;19;20038;-74
2023/11/02 06:04:09;;;;;;;4.05;1.20;;;11.90;93.30;;;;;;9169395;19;20371;-73
2023/11/02 06:07:17;;;;;;;4.25;0.90;;;11.90;93.40;;;;;;9166336;19;20102;-74
2023/11/02 06:10:23;;;;;;;9.15;1.98;;;11.90;93.80;;;;;;9170588;19;20014;-74
2023/11/02 06:13:31;;;;;;;8.50;0.95;;;11.90;93.80;;;;;;9169253;19;20022;-73
2023/11/02 06:16:36;;;;;;;7.75;1.23;;;11.90;94.30;;;;;;9167418;19;20663;-74
2023/11/02 06:19:46;;;;;;;4.95;0.73;;;12.00;94.90;;;;;;9167511;19;21991;-72
2023/11/02 06:22:52;;;;;;;4.30;1.05;;;12.00;95.70;;;;;;9167911;19;20107;-73
2023/11/02 06:25:59;;;;;;;2.42;0.70;;;11.90;88.50;;;;;;9169370;19;20019;-73
2023/11/02 06:29:05;;;;;;;5.70;1.02;;;11.80;85.90;;;;;;9170125;19;20014;-73
2023/11/02 06:32:13;;;;;;;2.95;0.90;;;11.80;85.80;;;;;;9162361;19;20483;-73
2023/11/02 06:35:20;;;;;;;3.55;1.00;;;12.00;86.70;;;;;;9169073;19;20435;-74
2023/11/02 06:38:29;;;;;;;3.72;1.08;;;11.00;87.10;;;;;;9166529;19;20026;-73
2023/11/02 06:41:34;;;;;;;4.03;1.70;;;11.80;85.70;;;;;;9168736;19;20077;-74
2023/11/02 06:44:43;;;;;;;5.55;0.80;;;11.80;85.60;;;;;;9168544;19;20014;-74
2023/11/02 06:47:48;;;;;;;2.83;0.82;;;11.80;85.60;;;;;;9168262;19;20015;-74
2023/11/02 06:50:58;;;;;;;4.72;0.82;;;11.90;85.60;;;;;;9167732;19;20034;-72
2023/11/02 06:54:06;;;;;;;4.18;1.10;;;12.00;85.60;;;;;;9167167;19;20026;-73
2023/11/02 06:57:14;;;;;;;3.67;0.98;;;11.90;85.50;;;;;;9167600;19;20023;-74
2023/11/02 07:00:19;;;;;;;3.70;1.40;;;11.90;85.40;;;;;;9166084;19;20011;-73
2023/11/02 07:03:29;;;;;;;5.97;0.77;;;11.90;85.40;;;;;;9166789;19;20020;-73
2023/11/02 07:06:37;;;;;;;3.40;0.70;;;12.00;85.40;;;;;;9165757;19;20396;-75
2023/11/02 07:09:46;;;;;;;1.95;1.10;;;11.90;85.40;;;;;;9166731;19;20025;-75
2023/11/02 07:12:52;;;;;;;2.58;0.90;;;12.00;85.40;;;;;;9162534;19;20022;-75
2023/11/02 07:16:00;;;;;;;2.30;0.70;;;12.00;85.50;;;;;;9167172;19;20798;-75
2023/11/02 07:19:06;;;;;;;2.45;1.02;;;12.00;85.50;;;;;;9159590;19;20527;-75
2023/11/02 07:22:16;;;;;;;6.00;1.13;;;11.90;85.50;;;;;;9164925;19;20033;-75
2023/11/02 07:25:22;;;;;;;5.90;1.55;;;11.80;85.50;;;;;;9164066;19;20475;-76
2023/11/02 07:28:29;;;;;;;3.33;1.38;;;11.90;85.60;;;;;;9165932;19;20403;-75
2023/11/02 07:31:34;;;;;;;2.40;0.95;;;11.90;85.60;;;;;;9160758;19;20019;-75
2023/11/02 07:34:42;;;;;;;4.47;0.98;;;11.90;85.60;;;;;;9164962;19;20017;-75
2023/11/02 07:37:50;;;;;;;3.53;1.10;;;11.90;85.60;;;;;;9164732;19;20026;-75
2023/11/02 07:40:58;;;;;;;1.88;0.68;;;11.90;85.80;;;;;;9163644;19;20538;-76
2023/11/02 07:44:03;;;;;;;6.90;0.98;;;11.80;85.70;;;;;;9165868;19;20029;-75
2023/11/02 07:47:11;;;;;;;5.70;0.77;;;11.80;85.70;;;;;;9164374;19;20025;-75
2023/11/02 07:50:18;;;;;;;3.22;0.90;;;11.80;85.80;;;;;;9163082;19;20022;-76
2023/11/02 07:53:29;;;;;;;4.28;0.85;;;11.80;85.90;;;;;;9162583;19;20018;-75
2023/11/02 07:56:34;;;;;;;5.57;1.25;;;11.80;85.90;;;;;;9165243;19;20018;-76
2023/11/02 07:59:42;;;;;;;3.72;1.38;;;11.80;86.00;;;;;;9161737;19;20029;-76
2023/11/02 08:02:47;;;;;;;2.97;0.93;;;11.80;86.10;;;;;;9159203;19;20010;-76
2023/11/02 08:05:55;;;;;;;3.35;1.63;;;11.70;86.00;;;;;;9156472;19;20347;-74
2023/11/02 08:09:03;;;;;;;3.03;1.10;;;11.70;86.20;;;;;;9157416;19;20021;-77
2023/11/02 08:12:15;;;;;;;1.08;0.60;;;11.70;86.20;;;;;;9159203;19;20029;-72
2023/11/02 08:15:22;;;;;;;1.85;1.17;;;11.70;86.20;;;;;;9160137;19;20021;-72
2023/11/02 08:18:29;;;;;;;0.63;0.60;;;11.70;86.30;;;;;;9159525;19;20007;-73
2023/11/02 08:21:35;;;;;;;3.55;0.80;;;11.70;86.30;;;;;;9159615;19;20022;-73
2023/11/02 08:24:45;;;;;;;5.10;0.82;;;11.70;86.40;;;;;;9158578;19;20022;-71
2023/11/02 08:27:57;;;;;;;4.47;0.85;;;11.70;86.50;;;;;;9160839;19;20028;-73
2023/11/02 08:31:05;;;;;;;0.60;0.60;;;11.70;86.80;;;;;;9156752;19;20015;-73
2023/11/02 08:34:11;;;;;;;3.97;1.83;;;11.70;86.70;;;;;;9158950;19;20623;-73
2023/11/02 08:37:19;;;;;;;2.30;0.65;;;11.70;86.70;;;;;;9160249;19;20391;-72
2023/11/02 08:40:27;;;;;;;2.78;0.70;;;11.70;86.70;;;;;;9155022;19;20377;-73
2023/11/02 08:43:37;;;;;;;2.47;0.65;;;11.70;86.80;;;;;;9159419;19;20514;-71
2023/11/02 08:46:43;;;;;;;4.28;0.80;;;11.70;86.80;;;;;;9158237;19;20018;-72
2023/11/02 08:49:50;;;;;;;3.17;0.80;;;11.80;86.90;;;;;;9158364;19;20038;-70
2023/11/02 08:52:56;;;;;;;1.58;0.80;;;11.80;87.20;;;;;;9158724;19;20029;-72
2023/11/02 08:56:09;;;;;;;5.45;0.90;;;11.80;87.10;;;;;;9151803;19;20019;-73
2023/11/02 08:59:15;;;;;;;2.25;0.60;;;11.90;87.20;;;;;;9158793;19;20368;-73
2023/11/02 09:02:22;;;;;;;3.67;0.73;;;12.00;87.40;;;;;;9161393;19;20010;-73
2023/11/02 09:05:28;;;;;;;5.07;0.90;;;12.00;87.30;;;;;;9163539;19;20011;-73
2023/11/02 09:08:36;;;;;;;9.00;1.23;;;12.10;87.50;;;;;;9160275;19;20011;-75
2023/11/02 09:11:44;;;;;;;1.75;0.60;;;12.20;87.50;;;;;;9160890;19;20015;-73
2023/11/02 09:14:51;;;;;;;5.63;0.88;;;12.20;87.50;;;;;;9160334;19;20015;-73
2023/11/02 09:17:57;;;;;;;2.38;0.85;;;12.30;87.60;;;;;;9161465;19;20011;-73
2023/11/02 09:21:05;;;;;;;1.40;0.50;;;12.40;87.50;;;;;;9158843;19;20019;-74
2023/11/02 09:24:11;;;;;;;5.18;1.15;;;12.50;87.50;;;;;;9162661;19;20023;-75
2023/11/02 09:27:21;;;;;;;2.45;0.35;;;12.60;87.50;;;;;;9169738;19;20018;-74
2023/11/02 09:30:27;;;;;;;5.55;0.68;;;12.70;87.40;;;;;;9169122;19;20025;-75
2023/11/02 09:33:34;;;;;;;5.47;0.70;;;12.70;87.30;;;;;;9168366;19;20025;-74
2023/11/02 09:36:40;;;;;;;2.00;0.55;;;12.90;87.40;;;;;;9169197;19;20018;-74
2023/11/02 09:39:47;;;;;;;1.30;0.65;;;12.90;87.30;;;;;;9165371;19;20026;-74
2023/11/02 09:42:56;;;;;;;2.55;0.63;;;13.00;87.20;;;;;;9168119;19;20025;-73
2023/11/02 09:46:03;;;;;;;2.83;0.80;;;13.10;87.10;;;;;;9166366;19;20022;-73
2023/11/02 09:49:09;;;;;;;2.83;0.60;;;13.20;87.10;;;;;;9164345;19;20018;-73
2023/11/02 09:52:17;;;;;;;0.88;0.52;;;13.20;86.90;;;;;;9166758;19;20018;-73
2023/11/02 09:55:22;;;;;;;2.90;0.70;;;13.30;86.80;;;;;;9163736;19;20007;-73
2023/11/02 09:58:34;;;;;;;2.08;0.70;;;13.40;86.70;;;;;;9167566;19;20021;-72
2023/11/02 10:01:41;;;;;;;1.85;0.40;;;13.40;86.60;;;;;;9166708;19;20010;-73
2023/11/02 10:04:48;;;;;;;2.22;0.70;;;13.40;86.60;;;;;;9165676;19;20014;-74
2023/11/02 10:07:54;;;;;;;1.10;0.50;;;13.50;86.60;;;;;;9165153;19;20062;-73
2023/11/02 10:11:14;;;;;;;2.00;0.40;;;13.50;86.40;;;;;;9164570;19;20352;-73
2023/11/02 10:14:22;;;;;;;1.42;0.57;;;13.50;86.30;;;;;;9165621;19;20024;-74
2023/11/02 10:17:36;;;;;;;6.28;1.35;;;13.60;86.30;;;;;;9167586;19;20022;-74
2023/11/02 10:20:41;;;;;;;2.83;0.82;;;13.60;86.20;;;;;;9165422;19;20022;-73
2023/11/02 10:23:51;;;;;;;2.50;0.43;;;13.60;86.20;;;;;;9167191;19;20115;-73
2023/11/02 10:26:57;;;;;;;1.45;0.50;;;13.70;86.10;;;;;;9165644;19;20023;-73
2023/11/02 10:30:09;;;;;;;2.40;0.75;;;13.70;86.10;;;;;;9167056;19;20018;-73
2023/11/02 10:33:15;;;;;;;2.25;0.68;;;13.80;86.00;;;;;;9167598;19;20015;-73
2023/11/02 10:36:23;;;;;;;4.32;0.70;;;13.80;85.90;;;;;;9164882;19;20026;-74
2023/11/02 10:39:28;;;;;;;3.75;0.80;;;13.90;85.90;;;;;;9164316;19;20813;-74
2023/11/02 10:42:36;;;;;;;2.35;0.63;;;13.90;85.80;;;;;;9165687;19;20025;-73
2023/11/02 10:45:46;;;;;;;2.15;0.63;;;13.90;85.60;;;;;;9167473;19;20479;-73
2023/11/02 10:48:56;;;;;;;3.88;0.70;;;14.00;85.50;;;;;;9165496;19;20020;-73
2023/11/02 10:52:02;;;;;;;1.27;0.75;;;14.00;85.50;;;;;;9168216;19;20016;-74
2023/11/02 10:55:15;;;;;;;3.38;0.75;;;14.10;85.60;;;;;;9162434;19;20018;-74
2023/11/02 10:58:23;;;;;;;4.30;0.50;;;14.20;85.50;;;;;;9167069;19;20023;-73
2023/11/02 11:01:34;;;;;;;5.00;0.65;;;14.20;85.30;;;;;;9165891;19;20478;-73
2023/11/02 11:04:43;;;;;;;2.30;0.82;;;14.20;85.20;;;;;;9167249;19;20581;-74
2023/11/02 11:07:56;;;;;;;1.50;0.90;;;14.20;85.00;;;;;;9166781;19;20013;-74
2023/11/02 11:11:02;;;;;;;4.90;0.63;;;14.30;85.00;;;;;;9165537;19;20025;-74
2023/11/02 11:14:11;;;;;;;2.05;0.80;;;14.30;85.00;;;;;;9165083;19;20015;-73
2023/11/02 11:17:19;;;;;;;4.60;0.80;;;14.30;84.80;;;;;;9162356;19;20503;-74
2023/11/02 11:20:27;;;;;;;5.00;0.98;;;14.30;84.80;;;;;;9160961;19;20033;-74
2023/11/02 11:23:36;;;;;;;2.25;0.95;;;14.40;84.80;;;;;;9163956;19;20026;-75
2023/11/02 11:26:50;;;;;;;2.60;0.75;;;14.60;84.90;;;;;;9162009;19;20574;-73
2023/11/02 11:29:56;;;;;;;5.97;1.85;;;14.50;84.70;;;;;;9163696;19;21149;-77
2023/11/02 11:33:26;;;;;;;5.10;1.02;;;14.60;84.60;;;;;;9163374;19;20488;-74
2023/11/02 11:36:42;;;;;;;7.63;0.85;;;14.70;85.20;;;;;;9163193;19;20480;-75
2023/11/02 11:39:55;;;;;;;5.63;0.88;;;14.80;84.30;;;;;;9161312;19;20025;-76
2023/11/02 11:43:05;;;;;;;7.75;1.00;;;14.80;84.20;;;;;;9165061;19;20090;-75
2023/11/02 11:46:12;;;;;;;9.80;1.17;;;14.80;84.00;;;;;;9163440;19;20341;-76
2023/11/02 11:49:48;;;;;;;2.80;0.95;;;14.90;84.10;;;;;;9160815;19;20563;-75
2023/11/02 11:53:13;;;;;;;5.97;1.30;;;14.90;83.60;;;;;;9162359;19;20018;-74
2023/11/02 11:56:34;;;;;;;6.85;1.05;;;15.00;83.60;;;;;;9157164;19;20018;-76
2023/11/02 12:00:12;;;;;;;10.30;1.40;;;15.00;83.40;;;;;;9163078;19;20014;-77
2023/11/02 12:03:46;;;;;;;8.95;1.40;;;15.00;83.40;;;;;;9161143;19;20026;-76
2023/11/02 12:06:58;;;;;;;3.40;1.40;;;15.10;83.20;;;;;;9164599;19;20173;-75
2023/11/02 12:10:05;;;;;;;7.05;1.67;;;15.10;83.20;;;;;;9163714;19;20018;-75
2023/11/02 12:13:14;;;;;;;9.38;2.05;;;15.10;83.00;;;;;;9165061;19;20018;-76
2023/11/02 12:16:21;;;;;;;8.73;1.20;;;15.10;83.00;;;;;;9164622;19;20732;-77
2023/11/02 12:19:42;;;;;;;5.22;1.10;;;15.10;82.80;;;;;;9162002;19;20011;-76
2023/11/02 12:23:01;;;;;;;6.50;1.42;;;15.20;82.40;;;;;;9161627;19;20384;-74
2023/11/02 12:26:10;;;;;;;7.82;1.55;;;15.20;82.50;;;;;;9164354;19;20011;-74
2023/11/02 12:29:15;;;;;;;7.13;1.10;;;15.20;82.50;;;;;;9164057;19;20014;-75
2023/11/02 12:32:23;;;;;;;4.35;1.50;;;15.20;82.30;;;;;;9164460;19;20026;-76
2023/11/02 12:35:29;;;;;;;9.10;1.98;;;15.20;82.20;;;;;;9162108;19;20010;-75
2023/11/02 12:38:47;;;;;;;11.00;1.67;;;15.20;82.10;;;;;;9163504;19;20015;-76
2023/11/02 12:41:53;;;;;;;4.35;1.05;;;15.20;81.60;;;;;;9157472;19;20019;-74
2023/11/02 12:45:04;;;;;;;6.25;0.93;;;15.20;81.70;;;;;;9160828;19;20014;-76
2023/11/02 12:48:28;;;;;;;9.23;1.58;;;15.20;81.60;;;;;;9161328;19;20375;-74
2023/11/02 12:51:37;;;;;;;6.43;1.50;;;15.20;81.40;;;;;;9160060;19;20053;-75
2023/11/02 12:54:58;;;;;;;7.68;1.60;;;15.20;81.30;;;;;;9155747;19;20011;-73
2023/11/02 12:58:06;;;;;;;4.90;1.13;;;15.20;80.90;;;;;;9160051;19;20017;-76
2023/11/02 13:01:13;;;;;;;9.95;1.45;;;15.20;81.10;;;;;;9157989;19;20516;-73
2023/11/02 13:04:23;;;;;;;9.50;1.58;;;15.30;80.90;;;;;;9159549;19;20025;-76
2023/11/02 13:07:30;;;;;;;8.02;1.92;;;15.30;80.60;;;;;;9158352;19;20765;-74
2023/11/02 13:10:47;;;;;;;10.82;1.30;;;15.30;81.10;;;;;;9159436;19;20059;-75
2023/11/02 13:13:53;;;;;;;10.48;1.15;;;15.30;80.00;;;;;;9161116;19;20017;-74
2023/11/02 13:17:03;;;;;;;10.90;1.60;;;15.30;80.10;;;;;;9160442;19;20388;-76
2023/11/02 13:20:10;;;;;;;6.28;0.98;;;15.30;79.70;;;;;;9160088;19;20015;-77
2023/11/02 13:23:18;;;;;;;10.98;1.80;;;15.30;79.30;;;;;;9156784;19;20018;-74
2023/11/02 13:26:27;;;;;;;5.88;1.30;;;15.30;79.10;;;;;;9160623;19;20018;-73
2023/11/02 13:29:35;;;;;;;8.55;1.23;;;15.30;79.00;;;;;;9160485;19;20011;-75
2023/11/02 13:32:41;;;;;;;10.90;1.48;;;15.30;78.90;;;;;;9159925;19;20026;-74
2023/11/02 13:35:48;;;;;;;11.32;1.27;;;15.30;78.90;;;;;;9161094;19;20029;-74
2023/11/02 13:38:55;;;;;;;7.38;1.63;;;15.30;78.60;;;;;;9161679;19;20027;-77
2023/11/02 13:42:05;;;;;;;14.93;1.25;;;15.30;78.40;;;;;;9158691;19;20487;-74
2023/11/02 13:45:11;;;;;;;11.25;1.40;;;15.30;78.30;;;;;;9159330;19;20011;-75
2023/11/02 13:48:19;;;;;;;6.43;1.20;;;15.30;78.10;;;;;;9157380;19;20018;-76
2023/11/02 13:51:25;;;;;;;11.38;1.40;;;15.30;78.10;;;;;;9157618;19;20018;-74
2023/11/02 13:54:33;;;;;;;7.93;1.17;;;15.20;78.00;;;;;;9156317;19;20015;-74
2023/11/02 13:57:41;;;;;;;10.82;1.50;;;15.20;77.80;;;;;;9158209;19;20607;-72
2023/11/02 14:00:50;;;;;;;5.25;1.33;;;15.20;77.80;;;;;;9159980;19;20014;-73
2023/11/02 14:03:55;;;;;;;9.10;1.73;;;15.20;77.80;;;;;;9160028;19;20014;-75
2023/11/02 14:07:03;;;;;;;7.32;1.73;;;15.20;77.60;;;;;;9158056;19;20851;-73
2023/11/02 14:10:09;;;;;;;6.68;1.50;;;15.20;77.50;;;;;;9162416;19;20021;-75
2023/11/02 14:13:20;;;;;;;17.10;1.45;;;15.10;77.30;;;;;;9169202;19;20264;-76
2023/11/02 14:16:25;;;;;;;7.03;1.42;;;15.10;77.40;;;;;;9170215;19;20011;-76
2023/11/02 14:19:35;;;;;;;12.43;1.73;;;15.00;77.50;;;;;;9167128;19;20018;-75
2023/11/02 14:22:40;;;;;;;9.25;1.45;;;14.90;77.50;;;;;;9167433;19;20817;-74
2023/11/02 14:25:48;;;;;;;11.65;1.98;;;14.90;77.70;;;;;;9169408;19;20010;-75
2023/11/02 14:28:56;;;;;;;4.50;0.90;;;14.80;77.50;;;;;;9165546;19;20174;-73
2023/11/02 14:32:03;;;;;;;4.90;1.13;;;14.70;77.40;;;;;;9166975;19;20665;-76
2023/11/02 14:35:11;;;;;;;9.05;1.33;;;14.70;77.30;;;;;;9166118;19;20022;-75
2023/11/02 14:38:19;;;;;;;6.22;1.10;;;14.60;77.20;;;;;;9168817;19;20021;-74
2023/11/02 14:41:25;;;;;;;5.40;1.35;;;14.60;77.50;;;;;;9166622;19;20025;-73
2023/11/02 14:44:35;;;;;;;7.38;1.38;;;14.60;77.40;;;;;;9160056;19;20658;-74
2023/11/02 14:47:40;;;;;;;20.15;1.92;;;14.50;77.10;;;;;;9166782;19;20081;-74
2023/11/02 14:50:48;;;;;;;10.30;1.50;;;14.50;77.10;;;;;;9167877;19;20022;-75
2023/11/02 14:53:53;;;;;;;5.10;1.00;;;14.50;77.00;;;;;;9167120;19;20023;-74
2023/11/02 14:57:01;;;;;;;6.60;0.93;;;14.50;77.50;;;;;;9163638;19;20026;-74
2023/11/02 15:00:12;;;;;;;8.70;1.70;;;14.50;77.60;;;;;;9165960;19;20014;-74
2023/11/02 15:03:20;;;;;;;6.38;1.40;;;14.50;76.80;;;;;;9160107;19;20021;-74
2023/11/02 15:06:25;;;;;;;13.73;2.47;;;14.50;76.90;;;;;;9159133;19;20018;-76
2023/11/02 15:09:33;;;;;;;5.45;1.73;;;14.50;76.80;;;;;;9164629;19;20010;-73
2023/11/02 15:12:39;;;;;;;21.77;1.50;;;14.40;76.60;;;;;;9166751;19;20014;-76
2023/11/02 15:15:50;;;;;;;11.00;2.05;;;14.40;76.60;;;;;;9167227;19;20018;-73
2023/11/02 15:18:56;;;;;;;10.38;1.98;;;14.40;76.50;;;;;;9166828;19;20031;-74
2023/11/02 15:22:04;;;;;;;4.40;1.10;;;14.40;76.40;;;;;;9164859;19;20380;-73
2023/11/02 15:25:11;;;;;;;5.60;1.02;;;14.30;76.40;;;;;;9165906;19;20030;-74
2023/11/02 15:28:18;;;;;;;5.28;1.10;;;14.30;76.40;;;;;;9163367;19;20025;-76
2023/11/02 15:31:30;;;;;;;10.82;2.20;;;14.20;76.10;;;;;;9163614;19;20014;-74
2023/11/02 15:34:37;;;;;;;7.30;1.50;;;14.20;76.10;;;;;;9163603;19;20015;-74
2023/11/02 15:37:43;;;;;;;7.10;1.30;;;14.10;76.30;;;;;;9164511;19;20021;-73
2023/11/02 15:40:51;;;;;;;8.80;1.20;;;14.10;76.40;;;;;;9160347;19;20010;-73
2023/11/02 15:43:56;;;;;;;9.75;1.40;;;14.10;76.30;;;;;;9160818;19;20023;-74
2023/11/02 15:47:06;;;;;;;8.57;1.23;;;14.10;76.30;;;;;;9165616;19;20010;-74
2023/11/02 15:50:14;;;;;;;15.38;1.95;;;14.10;76.20;;;;;;9161407;19;20007;-74
2023/11/02 15:53:21;;;;;;;8.50;2.28;;;14.00;76.20;;;;;;9164686;19;20372;-75
2023/11/02 15:56:27;;;;;;;11.25;1.45;;;14.00;76.20;;;;;;9160206;19;20534;-74
2023/11/02 15:59:35;;;;;;;5.60;1.30;;;14.00;76.20;;;;;;9163639;19;20030;-74
2023/11/02 16:02:43;;;;;;;17.98;1.85;;;14.00;75.90;;;;;;9162833;19;20372;-75
2023/11/02 16:05:51;;;;;;;8.90;2.03;;;14.00;75.80;;;;;;9157689;19;20021;-73
2023/11/02 16:08:57;;;;;;;12.63;1.73;;;14.00;75.80;;;;;;9165605;19;20018;-73
2023/11/02 16:12:08;;;;;;;12.10;1.67;;;14.00;75.90;;;;;;9164480;19;20010;-74
2023/11/02 16:15:16;;;;;;;16.27;2.13;;;14.00;76.00;;;;;;9163880;19;20262;-72
2023/11/02 16:18:30;;;;;;;6.95;2.00;;;14.00;75.90;;;;;;9135064;19;20014;-74
2023/11/02 16:21:36;;;;;;;16.65;3.00;;;14.00;75.90;;;;;;9121981;19;20026;-74
2023/11/02 16:24:43;;;;;;;11.40;1.27;;;14.00;75.90;;;;;;9137649;19;20024;-74
2023/11/02 16:27:49;;;;;;;13.10;1.90;;;14.10;75.70;;;;;;9145535;19;20011;-73